createdAt,value
2023-07-24T00:06:57.577Z,45.07
2023-07-24T00:17:02.928Z,45.09
2023-07-24T00:27:08.343Z,45.06
2023-07-24T00:37:13.990Z,45.11
2023-07-24T00:47:19.391Z,45.43
2023-07-24T00:57:24.322Z,45.22
2023-07-24T01:07:30.188Z,45.17
2023-07-24T01:17:35.587Z,45.17
2023-07-24T01:27:40.765Z,45.27
2023-07-24T01:37:46.142Z,45.29
2023-07-24T01:47:51.238Z,45.45
2023-07-24T01:57:56.701Z,45.30
2023-07-24T02:08:01.747Z,45.34
2023-07-24T02:18:07.129Z,45.41
2023-07-24T02:28:12.555Z,45.36
2023-07-24T02:38:18.043Z,45.39
2023-07-24T02:48:23.275Z,45.43
2023-07-24T02:58:28.488Z,45.38
2023-07-24T03:08:33.669Z,45.49
2023-07-24T03:18:39.154Z,45.64
2023-07-24T03:28:44.331Z,45.54
2023-07-24T03:38:49.705Z,45.67
2023-07-24T03:48:55.101Z,45.51
2023-07-24T03:59:00.274Z,45.57
2023-07-24T04:09:05.546Z,45.61
2023-07-24T04:19:10.816Z,45.66
2023-07-24T04:29:16.312Z,45.66
2023-07-24T04:39:22.036Z,45.71
2023-07-24T04:49:27.405Z,45.74
2023-07-24T04:59:32.998Z,45.78
2023-07-24T05:09:37.981Z,45.79
2023-07-24T05:19:43.219Z,45.78
2023-07-24T05:29:48.355Z,45.80
2023-07-24T05:39:53.952Z,45.73
2023-07-24T05:49:59.075Z,45.79
2023-07-24T06:00:04.466Z,45.79
2023-07-24T06:10:10.068Z,45.78
2023-07-24T06:20:15.771Z,45.73
2023-07-24T06:30:21.145Z,45.85
2023-07-24T06:40:26.576Z,45.79
2023-07-24T06:50:31.854Z,45.79
2023-07-24T07:00:39.855Z,46.20
2023-07-24T07:10:45.639Z,46.47
2023-07-24T07:20:51.455Z,46.44
2023-07-24T07:30:56.926Z,46.72
2023-07-24T07:41:02.346Z,46.76
2023-07-24T07:51:07.894Z,46.54
2023-07-24T08:01:13.051Z,46.33
2023-07-24T08:11:18.486Z,46.28
2023-07-24T08:21:23.815Z,46.27
2023-07-24T08:31:29.346Z,46.69
2023-07-24T08:41:34.953Z,46.27
2023-07-24T08:51:40.260Z,46.23
2023-07-24T09:01:45.729Z,46.04
2023-07-24T09:11:51.772Z,45.99
2023-07-24T09:21:56.865Z,45.95
2023-07-24T09:32:02.562Z,45.92
2023-07-24T09:42:08.012Z,45.95
2023-07-24T09:52:13.450Z,46.38
2023-07-24T10:02:19.588Z,46.32
2023-07-24T10:12:24.804Z,46.63
2023-07-24T10:22:29.802Z,46.61
2023-07-24T10:32:35.403Z,46.65
2023-07-24T10:42:40.918Z,46.49
2023-07-24T10:52:46.763Z,46.47
2023-07-24T11:02:52.408Z,46.49
2023-07-24T11:12:57.662Z,46.34
2023-07-24T11:23:03.232Z,46.37
2023-07-24T11:33:08.675Z,46.29
2023-07-24T11:43:14.013Z,46.28
2023-07-24T11:53:19.232Z,46.43
2023-07-24T12:03:25.175Z,46.23
2023-07-24T12:13:30.732Z,46.11
2023-07-24T12:23:36.464Z,46.28
2023-07-24T12:33:41.866Z,46.48
2023-07-24T12:43:47.202Z,46.59
2023-07-24T12:54:01.449Z,46.73
2023-07-24T13:04:03.998Z,46.82
2023-07-24T13:14:09.508Z,46.53
2023-07-24T13:24:14.910Z,46.76
2023-07-24T13:34:20.273Z,46.61
2023-07-24T13:44:25.537Z,46.61
2023-07-24T13:54:31.071Z,46.80
2023-07-24T14:04:36.322Z,46.67
2023-07-24T14:14:41.908Z,46.64
2023-07-24T14:24:47.135Z,46.68
2023-07-24T14:34:52.460Z,46.64
2023-07-24T14:44:57.328Z,46.64
2023-07-24T14:55:02.619Z,46.69
2023-07-24T15:05:07.806Z,46.85
2023-07-24T15:15:13.689Z,46.97
2023-07-24T15:25:19.287Z,47.23
2023-07-24T15:35:24.975Z,47.46
2023-07-24T15:45:30.504Z,47.82
2023-07-24T15:55:36.197Z,47.50
2023-07-24T16:05:41.796Z,47.52
2023-07-24T16:15:47.194Z,47.39
2023-07-24T16:25:52.477Z,47.29
2023-07-24T16:35:57.847Z,47.48
2023-07-24T16:46:24.858Z,47.41
2023-07-24T16:56:13.504Z,47.29
2023-07-24T17:06:18.525Z,47.28
2023-07-24T17:16:24.044Z,47.25
2023-07-24T17:26:29.455Z,47.07
2023-07-24T17:36:35.686Z,47.07
2023-07-24T17:46:41.464Z,46.97
2023-07-24T17:56:47.108Z,47.00
2023-07-24T18:06:53.505Z,47.02
2023-07-24T18:16:58.798Z,47.05
2023-07-24T18:27:05.794Z,47.04
2023-07-24T18:37:11.462Z,47.09
2023-07-24T18:47:16.833Z,47.11
2023-07-24T18:57:22.186Z,47.22
2023-07-24T19:07:27.785Z,47.28
2023-07-24T19:17:33.062Z,47.38
2023-07-24T19:27:38.727Z,47.42
2023-07-24T19:37:44.111Z,47.47
2023-07-24T19:47:49.674Z,47.54
2023-07-24T19:57:55.382Z,47.56
2023-07-24T20:08:01.081Z,47.63
2023-07-24T20:18:06.253Z,47.62
2023-07-24T20:28:12.184Z,47.63
2023-07-24T20:38:17.815Z,47.61
2023-07-24T20:48:23.290Z,47.63
2023-07-24T20:58:28.374Z,47.69
2023-07-24T21:08:33.449Z,47.77
2023-07-24T21:18:39.121Z,47.75
2023-07-24T21:28:44.450Z,47.65
2023-07-24T21:38:50.073Z,47.64
2023-07-24T21:48:55.518Z,47.70
2023-07-24T21:59:01.260Z,47.79
2023-07-24T22:09:06.521Z,47.65
2023-07-24T22:19:12.369Z,48.18
2023-07-24T22:29:17.665Z,48.30
2023-07-24T22:39:23.186Z,47.96
2023-07-24T22:49:28.710Z,48.00
2023-07-24T22:59:33.974Z,48.02
2023-07-24T23:09:39.485Z,47.95
2023-07-24T23:19:44.897Z,48.03
2023-07-24T23:29:50.136Z,47.90
2023-07-24T23:39:55.545Z,47.94
2023-07-24T23:50:01.069Z,47.96
